sensor_id;sensor_type;location;lat;lon;timestamp;pressure;altitude;pressure_sealevel;temperature;humidity
51958;BME280;41120;51.820;20.804;2022-08-03T00:00:40;99779.47;;;15.03;100.00
51958;BME280;41120;51.820;20.804;2022-08-03T00:03:29;99774.72;;;14.97;100.00
51958;BME280;41120;51.820;20.804;2022-08-03T00:05:55;99773.63;;;14.90;100.00
51958;BME280;41120;51.820;20.804;2022-08-03T00:08:22;99781.25;;;14.93;100.00
51958;BME280;41120;51.820;20.804;2022-08-03T00:10:50;99780.84;;;14.97;100.00
51958;BME280;41120;51.820;20.804;2022-08-03T00:13:25;99784.16;;;14.99;100.00
51958;BME280;41120;51.820;20.804;2022-08-03T00:15:58;99776.53;;;14.96;100.00
51958;BME280;41120;51.820;20.804;2022-08-03T00:18:31;99786.38;;;14.85;100.00
51958;BME280;41120;51.820;20.804;2022-08-03T00:21:07;99784.59;;;14.75;100.00
51958;BME280;41120;51.820;20.804;2022-08-03T00:23:41;99780.81;;;14.68;100.00
51958;BME280;41120;51.820;20.804;2022-08-03T00:26:07;99782.19;;;14.72;100.00
51958;BME280;41120;51.820;20.804;2022-08-03T00:28:35;99777.50;;;14.76;100.00
51958;BME280;41120;51.820;20.804;2022-08-03T00:31:20;99784.13;;;14.80;100.00
51958;BME280;41120;51.820;20.804;2022-08-03T00:33:49;99778.44;;;14.75;100.00
51958;BME280;41120;51.820;20.804;2022-08-03T00:36:21;99779.97;;;14.68;100.00
51958;BME280;41120;51.820;20.804;2022-08-03T00:38:53;99778.28;;;14.57;100.00
51958;BME280;41120;51.820;20.804;2022-08-03T00:41:26;99783.22;;;14.50;100.00
51958;BME280;41120;51.820;20.804;2022-08-03T00:44:01;99783.38;;;14.49;100.00
51958;BME280;41120;51.820;20.804;2022-08-03T00:46:37;99782.53;;;14.48;100.00
51958;BME280;41120;51.820;20.804;2022-08-03T00:49:04;99777.94;;;14.41;100.00
51958;BME280;41120;51.820;20.804;2022-08-03T00:51:32;99784.53;;;14.56;100.00
51958;BME280;41120;51.820;20.804;2022-08-03T00:57:06;99792.72;;;14.72;100.00
51958;BME280;41120;51.820;20.804;2022-08-03T00:59:32;99775.28;;;14.91;100.00
51958;BME280;41120;51.820;20.804;2022-08-03T01:02:07;99772.94;;;15.07;100.00
51958;BME280;41120;51.820;20.804;2022-08-03T01:04:33;99787.50;;;15.21;100.00
51958;BME280;41120;51.820;20.804;2022-08-03T01:27:56;99784.72;;;14.84;100.00
51958;BME280;41120;51.820;20.804;2022-08-03T01:30:34;99783.06;;;14.83;100.00
51958;BME280;41120;51.820;20.804;2022-08-03T01:33:27;99789.00;;;14.75;100.00
51958;BME280;41120;51.820;20.804;2022-08-03T01:35:59;99782.47;;;14.69;100.00
51958;BME280;41120;51.820;20.804;2022-08-03T01:38:40;99786.78;;;14.61;100.00
51958;BME280;41120;51.820;20.804;2022-08-03T01:41:11;99783.94;;;14.52;100.00
51958;BME280;41120;51.820;20.804;2022-08-03T01:43:43;99785.44;;;14.45;100.00
51958;BME280;41120;51.820;20.804;2022-08-03T01:46:20;99780.75;;;14.49;100.00
51958;BME280;41120;51.820;20.804;2022-08-03T01:49:00;99781.25;;;14.43;100.00
51958;BME280;41120;51.820;20.804;2022-08-03T01:51:38;99770.00;;;14.31;100.00
51958;BME280;41120;51.820;20.804;2022-08-03T01:54:13;99763.75;;;14.22;100.00
51958;BME280;41120;51.820;20.804;2022-08-03T01:56:51;99776.38;;;14.28;100.00
51958;BME280;41120;51.820;20.804;2022-08-03T01:59:19;99768.22;;;14.31;100.00
51958;BME280;41120;51.820;20.804;2022-08-03T02:01:52;99769.56;;;14.26;100.00
51958;BME280;41120;51.820;20.804;2022-08-03T02:04:34;99764.88;;;14.29;100.00
51958;BME280;41120;51.820;20.804;2022-08-03T02:07:16;99760.38;;;14.51;100.00
51958;BME280;41120;51.820;20.804;2022-08-03T02:10:02;99765.84;;;14.69;100.00
51958;BME280;41120;51.820;20.804;2022-08-03T02:12:38;99763.19;;;14.69;100.00
51958;BME280;41120;51.820;20.804;2022-08-03T02:15:15;99763.06;;;14.61;100.00
51958;BME280;41120;51.820;20.804;2022-08-03T02:17:47;99758.19;;;14.56;100.00
51958;BME280;41120;51.820;20.804;2022-08-03T02:20:26;99758.25;;;14.45;100.00
51958;BME280;41120;51.820;20.804;2022-08-03T02:23:02;99758.94;;;14.37;100.00
51958;BME280;41120;51.820;20.804;2022-08-03T02:25:40;99761.28;;;14.30;100.00
51958;BME280;41120;51.820;20.804;2022-08-03T02:28:31;99749.56;;;14.13;100.00
51958;BME280;41120;51.820;20.804;2022-08-03T02:31:11;99754.28;;;14.10;100.00
51958;BME280;41120;51.820;20.804;2022-08-03T02:33:43;99757.19;;;14.17;100.00
51958;BME280;41120;51.820;20.804;2022-08-03T02:36:30;99755.94;;;14.11;100.00
51958;BME280;41120;51.820;20.804;2022-08-03T02:39:10;99751.28;;;14.24;100.00
51958;BME280;41120;51.820;20.804;2022-08-03T02:41:56;99756.41;;;14.26;100.00
51958;BME280;41120;51.820;20.804;2022-08-03T02:44:33;99768.47;;;14.28;100.00
51958;BME280;41120;51.820;20.804;2022-08-03T02:47:08;99758.00;;;14.48;100.00
51958;BME280;41120;51.820;20.804;2022-08-03T02:49:37;99760.50;;;14.49;100.00
51958;BME280;41120;51.820;20.804;2022-08-03T02:55:06;99761.88;;;14.44;100.00
51958;BME280;41120;51.820;20.804;2022-08-03T02:57:34;99770.66;;;14.54;100.00
51958;BME280;41120;51.820;20.804;2022-08-03T03:00:04;99767.63;;;14.59;100.00
51958;BME280;41120;51.820;20.804;2022-08-03T03:02:33;99766.13;;;14.66;100.00
51958;BME280;41120;51.820;20.804;2022-08-03T03:05:07;99770.28;;;14.68;100.00
51958;BME280;41120;51.820;20.804;2022-08-03T03:07:35;99772.50;;;14.63;100.00
51958;BME280;41120;51.820;20.804;2022-08-03T03:10:03;99773.09;;;14.46;100.00
51958;BME280;41120;51.820;20.804;2022-08-03T03:12:37;99776.38;;;14.28;100.00
51958;BME280;41120;51.820;20.804;2022-08-03T03:15:07;99768.72;;;14.16;100.00
51958;BME280;41120;51.820;20.804;2022-08-03T03:17:34;99776.22;;;14.20;100.00
51958;BME280;41120;51.820;20.804;2022-08-03T03:20:07;99773.94;;;14.46;100.00
51958;BME280;41120;51.820;20.804;2022-08-03T03:22:35;99777.84;;;14.52;100.00
51958;BME280;41120;51.820;20.804;2022-08-03T03:25:01;99776.00;;;14.43;100.00
51958;BME280;41120;51.820;20.804;2022-08-03T03:27:30;99783.47;;;14.38;100.00
51958;BME280;41120;51.820;20.804;2022-08-03T03:30:26;99786.66;;;14.31;100.00
51958;BME280;41120;51.820;20.804;2022-08-03T03:33:14;99781.63;;;14.28;100.00
51958;BME280;41120;51.820;20.804;2022-08-03T03:35:42;99787.47;;;14.32;100.00
51958;BME280;41120;51.820;20.804;2022-08-03T03:38:34;99781.13;;;14.34;100.00
51958;BME280;41120;51.820;20.804;2022-08-03T03:41:00;99779.72;;;14.30;100.00
51958;BME280;41120;51.820;20.804;2022-08-03T03:43:30;99787.63;;;14.40;100.00
51958;BME280;41120;51.820;20.804;2022-08-03T03:46:04;99788.78;;;14.47;100.00
51958;BME280;41120;51.820;20.804;2022-08-03T03:48:32;99785.03;;;14.50;100.00
51958;BME280;41120;51.820;20.804;2022-08-03T03:51:06;99787.19;;;14.56;100.00
51958;BME280;41120;51.820;20.804;2022-08-03T03:53:34;99789.09;;;14.54;100.00
51958;BME280;41120;51.820;20.804;2022-08-03T03:56:09;99782.88;;;14.65;100.00
51958;BME280;41120;51.820;20.804;2022-08-03T03:58:35;99794.81;;;14.69;100.00
51958;BME280;41120;51.820;20.804;2022-08-03T04:01:04;99798.19;;;14.81;100.00
51958;BME280;41120;51.820;20.804;2022-08-03T04:03:37;99800.41;;;14.95;100.00
51958;BME280;41120;51.820;20.804;2022-08-03T04:06:07;99800.84;;;15.19;100.00
51958;BME280;41120;51.820;20.804;2022-08-03T04:12:15;99810.22;;;15.90;100.00
51958;BME280;41120;51.820;20.804;2022-08-03T04:14:50;99818.50;;;16.15;100.00
51958;BME280;41120;51.820;20.804;2022-08-03T04:17:35;99809.19;;;16.38;100.00
51958;BME280;41120;51.820;20.804;2022-08-03T04:20:04;99819.50;;;16.41;100.00
51958;BME280;41120;51.820;20.804;2022-08-03T04:22:36;99815.94;;;16.51;100.00
51958;BME280;41120;51.820;20.804;2022-08-03T04:25:08;99825.06;;;16.66;100.00
51958;BME280;41120;51.820;20.804;2022-08-03T04:27:45;99812.22;;;16.81;100.00
51958;BME280;41120;51.820;20.804;2022-08-03T04:30:26;99823.34;;;17.20;100.00
51958;BME280;41120;51.820;20.804;2022-08-03T04:33:01;99827.69;;;17.65;100.00
51958;BME280;41120;51.820;20.804;2022-08-03T04:35:33;99829.91;;;17.96;100.00
51958;BME280;41120;51.820;20.804;2022-08-03T04:38:23;99838.13;;;18.11;100.00
51958;BME280;41120;51.820;20.804;2022-08-03T04:40:51;99836.09;;;18.05;100.00
51958;BME280;41120;51.820;20.804;2022-08-03T04:45:46;99837.97;;;17.68;100.00
51958;BME280;41120;51.820;20.804;2022-08-03T04:48:22;99829.22;;;17.50;100.00
51958;BME280;41120;51.820;20.804;2022-08-03T04:50:54;99831.72;;;17.33;100.00
51958;BME280;41120;51.820;20.804;2022-08-03T04:53:21;99840.22;;;17.19;100.00
51958;BME280;41120;51.820;20.804;2022-08-03T04:56:02;99841.88;;;17.20;100.00
51958;BME280;41120;51.820;20.804;2022-08-03T04:58:38;99839.66;;;17.16;100.00
51958;BME280;41120;51.820;20.804;2022-08-03T05:01:04;99839.66;;;17.16;100.00
51958;BME280;41120;51.820;20.804;2022-08-03T05:03:48;99834.69;;;17.13;100.00
51958;BME280;41120;51.820;20.804;2022-08-03T05:06:20;99829.41;;;17.13;100.00
51958;BME280;41120;51.820;20.804;2022-08-03T05:08:53;99831.94;;;17.04;100.00
51958;BME280;41120;51.820;20.804;2022-08-03T05:11:28;99835.44;;;17.05;100.00
51958;BME280;41120;51.820;20.804;2022-08-03T05:14:04;99843.50;;;17.03;100.00
51958;BME280;41120;51.820;20.804;2022-08-03T05:16:39;99844.34;;;17.04;100.00
51958;BME280;41120;51.820;20.804;2022-08-03T05:19:14;99846.09;;;17.13;100.00
51958;BME280;41120;51.820;20.804;2022-08-03T05:22:10;99858.03;;;17.35;100.00
51958;BME280;41120;51.820;20.804;2022-08-03T05:25:00;99845.69;;;18.74;100.00
51958;BME280;41120;51.820;20.804;2022-08-03T05:28:04;99856.69;;;19.87;100.00
51958;BME280;41120;51.820;20.804;2022-08-03T05:30:45;99861.81;;;20.61;100.00
51958;BME280;41120;51.820;20.804;2022-08-03T05:33:23;99857.13;;;20.71;100.00
51958;BME280;41120;51.820;20.804;2022-08-03T05:35:55;99861.84;;;20.92;100.00
51958;BME280;41120;51.820;20.804;2022-08-03T05:38:23;99862.97;;;20.50;100.00
51958;BME280;41120;51.820;20.804;2022-08-03T05:41:03;99861.81;;;19.73;100.00
51958;BME280;41120;51.820;20.804;2022-08-03T05:43:39;99861.31;;;19.61;100.00
51958;BME280;41120;51.820;20.804;2022-08-03T05:46:05;99860.63;;;19.51;100.00
51958;BME280;41120;51.820;20.804;2022-08-03T05:48:33;99858.13;;;19.24;100.00
51958;BME280;41120;51.820;20.804;2022-08-03T05:51:00;99860.06;;;19.06;100.00
51958;BME280;41120;51.820;20.804;2022-08-03T05:53:49;99856.88;;;18.86;100.00
51958;BME280;41120;51.820;20.804;2022-08-03T05:56:21;99849.16;;;18.75;100.00
51958;BME280;41120;51.820;20.804;2022-08-03T06:01:51;99859.69;;;18.85;100.00
51958;BME280;41120;51.820;20.804;2022-08-03T06:04:23;99867.47;;;18.86;100.00
51958;BME280;41120;51.820;20.804;2022-08-03T06:06:52;99866.09;;;19.57;100.00
51958;BME280;41120;51.820;20.804;2022-08-03T06:12:38;99875.47;;;20.58;100.00
51958;BME280;41120;51.820;20.804;2022-08-03T06:15:23;99883.09;;;20.61;100.00
51958;BME280;41120;51.820;20.804;2022-08-03T06:17:55;99881.50;;;20.83;100.00
51958;BME280;41120;51.820;20.804;2022-08-03T06:20:23;99877.97;;;20.51;100.00
51958;BME280;41120;51.820;20.804;2022-08-03T06:22:56;99872.72;;;20.19;100.00
51958;BME280;41120;51.820;20.804;2022-08-03T06:25:28;99870.19;;;20.42;100.00
51958;BME280;41120;51.820;20.804;2022-08-03T06:28:05;99878.75;;;21.77;100.00
51958;BME280;41120;51.820;20.804;2022-08-03T06:30:42;99885.56;;;22.62;98.15
51958;BME280;41120;51.820;20.804;2022-08-03T06:33:08;99886.97;;;24.17;93.36
51958;BME280;41120;51.820;20.804;2022-08-03T06:35:56;99887.22;;;24.56;88.22
51958;BME280;41120;51.820;20.804;2022-08-03T06:38:56;99897.47;;;26.16;80.36
51958;BME280;41120;51.820;20.804;2022-08-03T06:41:26;99898.88;;;26.58;79.77
51958;BME280;41120;51.820;20.804;2022-08-03T06:44:08;99892.22;;;25.21;83.78
51958;BME280;41120;51.820;20.804;2022-08-03T06:46:38;99895.31;;;24.70;85.62
51958;BME280;41120;51.820;20.804;2022-08-03T06:49:23;99896.34;;;24.41;89.86
51958;BME280;41120;51.820;20.804;2022-08-03T06:52:08;99890.13;;;25.10;90.76
51958;BME280;41120;51.820;20.804;2022-08-03T06:54:35;99897.25;;;25.64;84.31
51958;BME280;41120;51.820;20.804;2022-08-03T06:57:24;99898.09;;;26.24;82.27
51958;BME280;41120;51.820;20.804;2022-08-03T06:59:56;99896.88;;;25.94;81.74
51958;BME280;41120;51.820;20.804;2022-08-03T07:02:49;99891.72;;;26.05;85.17
51958;BME280;41120;51.820;20.804;2022-08-03T07:05:34;99901.66;;;26.90;78.19
51958;BME280;41120;51.820;20.804;2022-08-03T07:08:08;99899.34;;;28.39;70.40
51958;BME280;41120;51.820;20.804;2022-08-03T07:10:44;99897.22;;;28.23;74.96
51958;BME280;41120;51.820;20.804;2022-08-03T07:13:27;99906.94;;;28.49;68.92
51958;BME280;41120;51.820;20.804;2022-08-03T07:16:13;99906.25;;;28.10;71.12
51958;BME280;41120;51.820;20.804;2022-08-03T07:21:55;99894.53;;;28.23;72.09
51958;BME280;41120;51.820;20.804;2022-08-03T07:24:26;99897.31;;;28.34;69.29
51958;BME280;41120;51.820;20.804;2022-08-03T07:26:57;99907.28;;;28.09;70.41
51958;BME280;41120;51.820;20.804;2022-08-03T07:29:33;99903.16;;;27.88;69.06
51958;BME280;41120;51.820;20.804;2022-08-03T07:32:12;99902.13;;;27.19;71.15
51958;BME280;41120;51.820;20.804;2022-08-03T07:37:55;99903.66;;;25.63;75.77
51958;BME280;41120;51.820;20.804;2022-08-03T07:40:28;99898.22;;;24.75;80.43
51958;BME280;41120;51.820;20.804;2022-08-03T07:42:56;99904.06;;;24.85;79.68
51958;BME280;41120;51.820;20.804;2022-08-03T07:45:22;99904.47;;;25.77;80.45
51958;BME280;41120;51.820;20.804;2022-08-03T07:48:25;99914.63;;;26.08;71.41
51958;BME280;41120;51.820;20.804;2022-08-03T07:50:52;99908.28;;;26.87;70.67
51958;BME280;41120;51.820;20.804;2022-08-03T07:53:26;99901.41;;;26.92;76.18
51958;BME280;41120;51.820;20.804;2022-08-03T07:56:02;99908.28;;;27.89;71.06
51958;BME280;41120;51.820;20.804;2022-08-03T07:58:28;99913.50;;;27.84;67.08
51958;BME280;41120;51.820;20.804;2022-08-03T08:01:00;99901.22;;;26.93;68.00
51958;BME280;41120;51.820;20.804;2022-08-03T08:07:08;99918.25;;;26.60;75.64
51958;BME280;41120;51.820;20.804;2022-08-03T08:09:56;99912.50;;;26.57;68.97
51958;BME280;41120;51.820;20.804;2022-08-03T08:12:53;99921.66;;;25.96;64.86
51958;BME280;41120;51.820;20.804;2022-08-03T08:15:26;99911.91;;;26.28;71.29
51958;BME280;41120;51.820;20.804;2022-08-03T08:18:00;99911.72;;;26.23;67.23
51958;BME280;41120;51.820;20.804;2022-08-03T08:20:37;99914.81;;;26.53;66.27
51958;BME280;41120;51.820;20.804;2022-08-03T08:23:07;99921.63;;;26.22;67.21
51958;BME280;41120;51.820;20.804;2022-08-03T08:25:34;99913.69;;;26.67;67.76
51958;BME280;41120;51.820;20.804;2022-08-03T08:28:10;99916.16;;;26.76;70.01
51958;BME280;41120;51.820;20.804;2022-08-03T08:30:36;99916.34;;;27.32;65.67
51958;BME280;41120;51.820;20.804;2022-08-03T08:33:25;99911.00;;;27.26;77.94
51958;BME280;41120;51.820;20.804;2022-08-03T08:35:54;99916.81;;;27.23;67.14
51958;BME280;41120;51.820;20.804;2022-08-03T08:38:26;99921.34;;;27.92;61.73
51958;BME280;41120;51.820;20.804;2022-08-03T08:40:56;99914.50;;;28.15;65.97
51958;BME280;41120;51.820;20.804;2022-08-03T08:43:26;99920.78;;;27.77;61.90
51958;BME280;41120;51.820;20.804;2022-08-03T08:45:53;99914.41;;;27.71;62.75
51958;BME280;41120;51.820;20.804;2022-08-03T08:48:24;99911.47;;;27.09;67.93
51958;BME280;41120;51.820;20.804;2022-08-03T08:50:55;99914.00;;;26.98;64.75
51958;BME280;41120;51.820;20.804;2022-08-03T08:53:28;99912.94;;;26.54;73.13
51958;BME280;41120;51.820;20.804;2022-08-03T08:56:04;99914.00;;;26.19;68.21
51958;BME280;41120;51.820;20.804;2022-08-03T08:58:47;99915.88;;;26.05;70.57
51958;BME280;41120;51.820;20.804;2022-08-03T09:01:21;99916.69;;;25.93;72.15
51958;BME280;41120;51.820;20.804;2022-08-03T09:03:49;99913.75;;;25.68;77.30
51958;BME280;41120;51.820;20.804;2022-08-03T09:06:16;99911.69;;;25.56;70.90
51958;BME280;41120;51.820;20.804;2022-08-03T09:08:46;99921.38;;;25.64;73.10
51958;BME280;41120;51.820;20.804;2022-08-03T09:11:23;99915.78;;;25.46;75.16
51958;BME280;41120;51.820;20.804;2022-08-03T09:13:55;99921.97;;;25.53;75.54
51958;BME280;41120;51.820;20.804;2022-08-03T09:16:21;99919.19;;;25.88;75.58
51958;BME280;41120;51.820;20.804;2022-08-03T09:18:50;99922.03;;;25.99;75.80
51958;BME280;41120;51.820;20.804;2022-08-03T09:21:38;99918.94;;;26.09;71.14
51958;BME280;41120;51.820;20.804;2022-08-03T09:24:10;99920.19;;;26.13;73.22
51958;BME280;41120;51.820;20.804;2022-08-03T09:26:39;99919.75;;;26.56;70.60
51958;BME280;41120;51.820;20.804;2022-08-03T09:29:30;99918.13;;;27.00;68.83
51958;BME280;41120;51.820;20.804;2022-08-03T09:32:09;99915.91;;;26.90;72.06
51958;BME280;41120;51.820;20.804;2022-08-03T09:34:47;99926.97;;;26.56;69.02
51958;BME280;41120;51.820;20.804;2022-08-03T09:37:22;99921.88;;;25.88;72.95
51958;BME280;41120;51.820;20.804;2022-08-03T09:39:58;99921.88;;;25.13;76.49
51958;BME280;41120;51.820;20.804;2022-08-03T09:42:28;99918.44;;;24.77;76.71
51958;BME280;41120;51.820;20.804;2022-08-03T09:44:54;99914.34;;;24.47;82.76
51958;BME280;41120;51.820;20.804;2022-08-03T09:47:33;99911.53;;;24.33;85.83
51958;BME280;41120;51.820;20.804;2022-08-03T09:50:23;99914.84;;;24.29;84.12
51958;BME280;41120;51.820;20.804;2022-08-03T09:53:00;99911.91;;;24.52;79.33
51958;BME280;41120;51.820;20.804;2022-08-03T09:55:32;99909.28;;;24.59;85.66
51958;BME280;41120;51.820;20.804;2022-08-03T09:58:20;99904.91;;;24.92;83.27
51958;BME280;41120;51.820;20.804;2022-08-03T10:01:40;99905.16;;;25.11;80.65
51958;BME280;41120;51.820;20.804;2022-08-03T10:04:15;99905.84;;;25.26;80.73
51958;BME280;41120;51.820;20.804;2022-08-03T10:07:11;99906.19;;;25.16;81.02
51958;BME280;41120;51.820;20.804;2022-08-03T10:09:59;99912.34;;;25.04;71.55
51958;BME280;41120;51.820;20.804;2022-08-03T10:12:49;99904.41;;;24.75;74.57
51958;BME280;41120;51.820;20.804;2022-08-03T10:15:37;99911.50;;;24.96;73.21
51958;BME280;41120;51.820;20.804;2022-08-03T10:18:20;99904.22;;;25.25;77.40
51958;BME280;41120;51.820;20.804;2022-08-03T10:20:51;99906.31;;;25.36;78.57
51958;BME280;41120;51.820;20.804;2022-08-03T10:23:20;99902.94;;;25.21;76.93
51958;BME280;41120;51.820;20.804;2022-08-03T10:25:54;99915.88;;;25.11;70.95
51958;BME280;41120;51.820;20.804;2022-08-03T10:28:34;99913.00;;;25.12;72.00
51958;BME280;41120;51.820;20.804;2022-08-03T10:31:07;99908.34;;;25.28;73.26
51958;BME280;41120;51.820;20.804;2022-08-03T10:33:47;99905.44;;;25.23;75.03
51958;BME280;41120;51.820;20.804;2022-08-03T10:36:29;99908.34;;;25.28;74.38
51958;BME280;41120;51.820;20.804;2022-08-03T10:39:03;99912.31;;;25.72;72.33
51958;BME280;41120;51.820;20.804;2022-08-03T10:41:32;99912.78;;;26.02;73.86
51958;BME280;41120;51.820;20.804;2022-08-03T10:46:38;99911.94;;;26.21;70.32
51958;BME280;41120;51.820;20.804;2022-08-03T10:55:19;99914.34;;;26.63;65.93
51958;BME280;41120;51.820;20.804;2022-08-03T11:01:54;99918.88;;;26.69;65.46
51958;BME280;41120;51.820;20.804;2022-08-03T11:04:46;99914.50;;;26.75;62.55
51958;BME280;41120;51.820;20.804;2022-08-03T11:07:31;99904.38;;;26.77;67.86
51958;BME280;41120;51.820;20.804;2022-08-03T11:10:05;99912.69;;;26.68;66.09
51958;BME280;41120;51.820;20.804;2022-08-03T11:13:25;99909.75;;;26.70;62.45
51958;BME280;41120;51.820;20.804;2022-08-03T11:19:50;99906.69;;;26.66;60.09
51958;BME280;41120;51.820;20.804;2022-08-03T11:22:50;99896.19;;;26.58;65.52
51958;BME280;41120;51.820;20.804;2022-08-03T11:28:35;99899.34;;;25.89;64.64
51958;BME280;41120;51.820;20.804;2022-08-03T11:34:08;99894.38;;;25.59;68.57
51958;BME280;41120;51.820;20.804;2022-08-03T11:37:21;99892.72;;;25.84;67.09
51958;BME280;41120;51.820;20.804;2022-08-03T11:39:53;99889.84;;;25.99;66.13
51958;BME280;41120;51.820;20.804;2022-08-03T11:45:06;99887.38;;;26.18;64.46
51958;BME280;41120;51.820;20.804;2022-08-03T11:47:55;99890.25;;;25.76;62.50
51958;BME280;41120;51.820;20.804;2022-08-03T11:50:50;99885.50;;;25.78;65.00
51958;BME280;41120;51.820;20.804;2022-08-03T11:53:50;99883.47;;;25.94;65.69
51958;BME280;41120;51.820;20.804;2022-08-03T11:56:18;99882.00;;;26.11;65.83
51958;BME280;41120;51.820;20.804;2022-08-03T11:59:04;99876.38;;;26.26;70.44
51958;BME280;41120;51.820;20.804;2022-08-03T12:01:36;99879.13;;;26.06;63.97
51958;BME280;41120;51.820;20.804;2022-08-03T12:04:11;99872.31;;;26.10;64.63
51958;BME280;41120;51.820;20.804;2022-08-03T12:06:59;99876.66;;;26.04;65.67
51958;BME280;41120;51.820;20.804;2022-08-03T12:09:33;99869.66;;;25.90;67.09
51958;BME280;41120;51.820;20.804;2022-08-03T12:12:02;99879.75;;;25.68;63.03
51958;BME280;41120;51.820;20.804;2022-08-03T12:14:38;99878.28;;;25.72;64.81
51958;BME280;41120;51.820;20.804;2022-08-03T12:17:05;99872.72;;;25.74;64.38
51958;BME280;41120;51.820;20.804;2022-08-03T12:19:43;99874.16;;;25.83;65.39
51958;BME280;41120;51.820;20.804;2022-08-03T12:22:10;99860.75;;;25.76;66.21
51958;BME280;41120;51.820;20.804;2022-08-03T12:25:00;99865.31;;;25.82;67.23
51958;BME280;41120;51.820;20.804;2022-08-03T12:27:37;99859.53;;;25.92;68.72
51958;BME280;41120;51.820;20.804;2022-08-03T12:30:06;99863.88;;;25.87;71.03
51958;BME280;41120;51.820;20.804;2022-08-03T12:32:48;99864.25;;;25.83;65.54
51958;BME280;41120;51.820;20.804;2022-08-03T12:35:21;99865.31;;;25.96;65.46
51958;BME280;41120;51.820;20.804;2022-08-03T12:38:04;99859.75;;;25.91;67.47
51958;BME280;41120;51.820;20.804;2022-08-03T12:40:31;99858.50;;;26.00;66.71
51958;BME280;41120;51.820;20.804;2022-08-03T12:43:31;99857.66;;;26.06;63.31
51958;BME280;41120;51.820;20.804;2022-08-03T12:49:22;99852.72;;;25.96;66.67
51958;BME280;41120;51.820;20.804;2022-08-03T12:54:39;99850.84;;;26.10;61.91
51958;BME280;41120;51.820;20.804;2022-08-03T12:57:12;99845.28;;;26.12;63.75
51958;BME280;41120;51.820;20.804;2022-08-03T12:59:45;99834.94;;;26.15;63.39
51958;BME280;41120;51.820;20.804;2022-08-03T13:08:02;99838.81;;;26.33;61.99
51958;BME280;41120;51.820;20.804;2022-08-03T13:10:38;99832.44;;;26.20;64.12
51958;BME280;41120;51.820;20.804;2022-08-03T13:13:10;99838.63;;;26.27;63.11
51958;BME280;41120;51.820;20.804;2022-08-03T13:16:09;99831.66;;;26.00;64.22
51958;BME280;41120;51.820;20.804;2022-08-03T13:18:45;99824.06;;;25.90;65.73
51958;BME280;41120;51.820;20.804;2022-08-03T13:21:20;99833.72;;;26.04;65.21
51958;BME280;41120;51.820;20.804;2022-08-03T13:24:00;99825.69;;;25.98;62.99
51958;BME280;41120;51.820;20.804;2022-08-03T13:26:28;99816.94;;;26.22;63.56
51958;BME280;41120;51.820;20.804;2022-08-03T13:29:17;99829.00;;;26.00;60.41
51958;BME280;41120;51.820;20.804;2022-08-03T13:31:43;99822.81;;;25.93;60.56
51958;BME280;41120;51.820;20.804;2022-08-03T13:34:22;99823.41;;;25.81;65.22
51958;BME280;41120;51.820;20.804;2022-08-03T13:36:49;99819.69;;;25.69;63.76
51958;BME280;41120;51.820;20.804;2022-08-03T13:39:23;99819.69;;;25.89;63.51
51958;BME280;41120;51.820;20.804;2022-08-03T13:42:03;99820.94;;;25.93;63.97
51958;BME280;41120;51.820;20.804;2022-08-03T13:44:31;99817.22;;;25.94;62.07
51958;BME280;41120;51.820;20.804;2022-08-03T13:47:03;99816.81;;;25.91;61.04
51958;BME280;41120;51.820;20.804;2022-08-03T13:49:33;99817.63;;;25.91;68.30
51958;BME280;41120;51.820;20.804;2022-08-03T13:55:23;99813.94;;;25.86;60.74
51958;BME280;41120;51.820;20.804;2022-08-03T13:57:58;99816.78;;;25.84;60.17
51958;BME280;41120;51.820;20.804;2022-08-03T14:00:33;99807.72;;;25.72;65.28
51958;BME280;41120;51.820;20.804;2022-08-03T14:03:00;99807.09;;;25.76;62.73
51958;BME280;41120;51.820;20.804;2022-08-03T14:05:33;99813.06;;;26.12;59.36
51958;BME280;41120;51.820;20.804;2022-08-03T14:08:16;99807.91;;;26.10;63.29
51958;BME280;41120;51.820;20.804;2022-08-03T14:10:48;99808.72;;;26.11;59.01
51958;BME280;41120;51.820;20.804;2022-08-03T14:13:30;99813.66;;;26.14;60.22
51958;BME280;41120;51.820;20.804;2022-08-03T14:16:14;99803.19;;;25.99;61.64
51958;BME280;41120;51.820;20.804;2022-08-03T14:18:41;99808.34;;;26.00;61.23
51958;BME280;41120;51.820;20.804;2022-08-03T14:21:09;99804.63;;;26.01;60.97
51958;BME280;41120;51.820;20.804;2022-08-03T14:23:36;99799.47;;;25.93;64.82
51958;BME280;41120;51.820;20.804;2022-08-03T14:26:06;99800.72;;;25.97;63.68
51958;BME280;41120;51.820;20.804;2022-08-03T14:28:40;99790.44;;;26.46;63.69
51958;BME280;41120;51.820;20.804;2022-08-03T14:31:13;99796.28;;;26.36;64.24
51958;BME280;41120;51.820;20.804;2022-08-03T14:33:45;99792.44;;;26.12;59.66
51958;BME280;41120;51.820;20.804;2022-08-03T14:36:28;99794.31;;;25.92;60.97
51958;BME280;41120;51.820;20.804;2022-08-03T14:39:08;99794.50;;;25.83;61.53
51958;BME280;41120;51.820;20.804;2022-08-03T14:41:34;99786.50;;;25.70;63.25
51958;BME280;41120;51.820;20.804;2022-08-03T14:44:07;99787.09;;;25.72;62.31
51958;BME280;41120;51.820;20.804;2022-08-03T14:46:35;99783.38;;;25.80;64.85
51958;BME280;41120;51.820;20.804;2022-08-03T14:49:08;99782.56;;;25.66;65.60
51958;BME280;41120;51.820;20.804;2022-08-03T14:51:35;99783.81;;;25.57;68.20
51958;BME280;41120;51.820;20.804;2022-08-03T14:54:11;99782.56;;;25.53;64.02
51958;BME280;41120;51.820;20.804;2022-08-03T14:57:10;99787.31;;;25.57;63.97
51958;BME280;41120;51.820;20.804;2022-08-03T14:59:38;99786.28;;;25.52;65.64